createdAt,value
2019-03-03T00:06:07.301Z,17.77
2019-03-03T00:11:10.327Z,18.33
2019-03-03T00:13:58.083Z,18.40
2019-03-03T00:16:26.493Z,20.40
2019-03-03T00:18:54.898Z,18.80
2019-03-03T00:21:23.324Z,15.47
2019-03-03T00:23:51.727Z,13.97
2019-03-03T00:26:20.127Z,17.00
2019-03-03T00:32:02.792Z,16.53
2019-03-03T00:34:31.318Z,15.50
2019-03-03T00:40:07.948Z,13.73
2019-03-03T00:42:55.469Z,18.20
2019-03-03T00:45:43.026Z,15.47
2019-03-03T00:51:19.631Z,17.20
2019-03-03T00:54:07.156Z,14.30
2019-03-03T00:56:54.730Z,13.83
2019-03-03T00:59:42.264Z,15.63
2019-03-03T01:02:29.953Z,13.93
2019-03-03T01:08:06.615Z,15.10
2019-03-03T01:11:13.467Z,13.70
2019-03-03T01:14:01.027Z,16.60
2019-03-03T01:16:48.619Z,16.67
2019-03-03T01:19:36.175Z,17.43
2019-03-03T01:22:23.759Z,15.33
2019-03-03T01:25:11.305Z,14.83
2019-03-03T01:27:39.709Z,16.30
2019-03-03T01:30:48.147Z,13.50
2019-03-03T01:33:35.735Z,13.93
2019-03-03T01:36:23.351Z,12.53
2019-03-03T01:38:51.807Z,12.33
2019-03-03T01:41:20.215Z,11.30
2019-03-03T01:43:48.636Z,10.90
2019-03-03T01:46:17.028Z,12.87
2019-03-03T01:48:45.438Z,11.43
2019-03-03T01:53:47.892Z,12.80
2019-03-03T01:56:16.417Z,15.53
2019-03-03T01:58:44.819Z,15.77
2019-03-03T02:01:32.522Z,18.27
2019-03-03T02:10:43.734Z,19.57
2019-03-03T02:16:20.458Z,18.33
2019-03-03T02:18:48.848Z,19.53
2019-03-03T02:21:17.248Z,15.90
2019-03-03T02:26:19.362Z,16.87
2019-03-03T02:28:47.820Z,18.13
2019-03-03T02:31:16.296Z,18.13
2019-03-03T02:33:44.695Z,18.50
2019-03-03T02:36:53.038Z,16.77
2019-03-03T02:39:40.635Z,15.47
2019-03-03T02:50:51.784Z,17.13
2019-03-03T02:53:20.246Z,17.87
2019-03-03T02:55:48.644Z,17.00
2019-03-03T02:58:17.048Z,17.10
2019-03-03T03:09:17.745Z,16.90
2019-03-03T03:12:05.337Z,15.13
2019-03-03T03:17:31.758Z,15.00
2019-03-03T03:20:19.289Z,16.17
2019-03-03T03:23:06.839Z,16.90
2019-03-03T03:25:54.366Z,15.83
2019-03-03T03:28:41.915Z,15.00
2019-03-03T03:31:29.457Z,13.63
2019-03-03T03:34:17.213Z,15.03
2019-03-03T03:39:53.853Z,13.97
2019-03-03T03:45:51.325Z,16.07
2019-03-03T03:57:01.791Z,17.53
2019-03-03T04:00:10.090Z,13.33
2019-03-03T04:02:57.639Z,14.40
2019-03-03T04:06:04.425Z,18.20
2019-03-03T04:08:52.240Z,16.13
2019-03-03T04:11:39.747Z,15.80
2019-03-03T04:14:27.452Z,16.00
2019-03-03T04:20:04.069Z,14.00
2019-03-03T04:22:51.660Z,15.50
2019-03-03T04:28:14.800Z,15.63
2019-03-03T04:33:51.422Z,13.03
2019-03-03T04:36:38.949Z,17.90
2019-03-03T04:39:47.320Z,12.60
2019-03-03T04:42:34.868Z,11.60
2019-03-03T04:45:22.480Z,13.10
2019-03-03T04:50:59.162Z,13.53
2019-03-03T04:53:46.684Z,14.87
2019-03-03T04:56:34.228Z,19.93
2019-03-03T04:59:21.756Z,14.93
2019-03-03T05:04:44.667Z,18.50
2019-03-03T05:10:21.384Z,16.47
2019-03-03T05:13:08.908Z,13.63
2019-03-03T05:15:56.480Z,12.60
2019-03-03T05:23:47.456Z,14.93
2019-03-03T05:26:35.201Z,13.43
2019-03-03T05:32:11.694Z,14.17
2019-03-03T05:34:40.113Z,15.17
2019-03-03T05:37:08.508Z,15.13
2019-03-03T05:42:10.416Z,12.60
2019-03-03T05:44:38.822Z,14.93
2019-03-03T05:47:07.236Z,14.27
2019-03-03T05:49:35.628Z,14.40
2019-03-03T05:52:04.028Z,14.27
2019-03-03T05:54:51.722Z,15.63
2019-03-03T05:57:20.122Z,13.87
2019-03-03T06:00:00.387Z,16.37
2019-03-03T06:04:53.163Z,15.60
2019-03-03T06:07:21.586Z,14.43
2019-03-03T06:09:49.984Z,14.73
2019-03-03T06:12:18.393Z,14.63
2019-03-03T06:14:46.900Z,14.40
2019-03-03T06:17:15.310Z,15.87
2019-03-03T06:22:31.244Z,15.50
2019-03-03T06:24:59.646Z,16.30
2019-03-03T06:27:28.067Z,15.60
2019-03-03T06:29:56.495Z,15.73
2019-03-03T06:32:24.893Z,14.10
2019-03-03T06:34:53.290Z,14.87
2019-03-03T06:39:56.188Z,17.17
2019-03-03T06:42:24.609Z,16.30
2019-03-03T06:44:53.008Z,14.57
2019-03-03T06:47:21.419Z,13.47
2019-03-03T06:49:49.844Z,14.07
2019-03-03T06:52:30.783Z,14.30
2019-03-03T06:54:59.277Z,14.07
2019-03-03T06:57:46.957Z,14.20
2019-03-03T07:00:55.315Z,14.50
2019-03-03T07:03:23.725Z,13.60
2019-03-03T07:05:52.108Z,12.47
2019-03-03T07:08:20.546Z,12.37
2019-03-03T07:10:48.945Z,12.57
2019-03-03T07:13:17.409Z,13.03
2019-03-03T07:18:19.511Z,13.73
2019-03-03T07:20:47.911Z,12.90
2019-03-03T07:25:50.290Z,12.37
2019-03-03T07:30:52.996Z,9.77
2019-03-03T07:38:31.286Z,10.07
2019-03-03T07:40:59.722Z,10.27
2019-03-03T07:43:28.124Z,10.53
2019-03-03T07:45:56.523Z,7.27
2019-03-03T07:50:59.102Z,8.83
2019-03-03T07:53:40.175Z,7.93
2019-03-03T07:56:08.573Z,10.63
2019-03-03T07:58:36.969Z,9.30
2019-03-03T08:01:05.393Z,11.57
2019-03-03T08:03:33.790Z,9.43
2019-03-03T08:06:02.183Z,9.60
2019-03-03T08:08:30.676Z,8.47
2019-03-03T08:10:59.074Z,8.97
2019-03-03T08:13:27.462Z,8.23
2019-03-03T08:18:30.142Z,9.00
2019-03-03T08:20:58.560Z,10.13
2019-03-03T08:23:26.961Z,10.60
2019-03-03T08:25:55.353Z,9.93
2019-03-03T08:28:23.800Z,10.13
2019-03-03T08:30:52.189Z,9.53
2019-03-03T08:33:20.586Z,9.60
2019-03-03T08:46:49.816Z,7.93
2019-03-03T08:49:37.366Z,7.93
2019-03-03T08:57:36.032Z,7.87
2019-03-03T09:00:44.367Z,9.37
2019-03-03T09:03:31.986Z,7.10
2019-03-03T09:06:19.526Z,9.37
2019-03-03T09:14:21.526Z,7.27
2019-03-03T09:17:09.116Z,7.87
2019-03-03T09:19:56.711Z,7.47
2019-03-03T09:25:33.495Z,8.07
2019-03-03T09:33:45.285Z,10.03
2019-03-03T09:36:32.874Z,7.37
2019-03-03T09:41:56.410Z,7.20
2019-03-03T09:44:43.933Z,7.13
2019-03-03T09:47:31.486Z,7.73
2019-03-03T09:55:43.925Z,7.97
2019-03-03T09:58:28.865Z,8.20
2019-03-03T10:01:16.433Z,5.63
2019-03-03T10:06:53.094Z,6.40
2019-03-03T10:10:01.418Z,5.00
2019-03-03T10:12:49.408Z,4.20
2019-03-03T10:15:37.026Z,3.83
2019-03-03T10:18:24.564Z,4.53
2019-03-03T10:24:01.260Z,4.80
2019-03-03T10:26:48.803Z,4.70
2019-03-03T10:29:36.449Z,4.90
2019-03-03T10:35:52.857Z,4.87
2019-03-03T10:41:29.473Z,7.53
2019-03-03T10:44:36.327Z,4.97
2019-03-03T10:50:18.858Z,4.00
2019-03-03T10:53:06.385Z,5.13
2019-03-03T10:58:32.925Z,4.47
2019-03-03T11:06:44.871Z,3.37
2019-03-03T11:09:53.186Z,2.53
2019-03-03T11:12:40.829Z,2.80
2019-03-03T11:15:49.157Z,2.93
2019-03-03T11:18:36.805Z,3.10
2019-03-03T11:26:52.351Z,4.07
2019-03-03T11:32:29.048Z,3.93
2019-03-03T11:35:35.916Z,3.20
2019-03-03T11:41:18.386Z,4.60
2019-03-03T11:46:55.511Z,3.47
2019-03-03T11:55:47.058Z,3.63
2019-03-03T11:58:34.590Z,2.83
2019-03-03T12:01:22.217Z,3.30
2019-03-03T12:04:04.680Z,3.73
2019-03-03T12:06:52.323Z,2.80
2019-03-03T12:12:29.049Z,2.93
2019-03-03T12:15:16.647Z,2.77
2019-03-03T12:18:04.296Z,3.07
2019-03-03T12:21:12.612Z,4.57
2019-03-03T12:27:14.483Z,2.77
2019-03-03T12:32:51.097Z,2.57
2019-03-03T12:38:27.896Z,3.80
2019-03-03T12:41:15.424Z,2.80
2019-03-03T12:44:02.970Z,2.70
2019-03-03T12:49:39.577Z,2.70
2019-03-03T12:55:16.201Z,3.27
2019-03-03T12:58:03.728Z,2.60
2019-03-03T13:00:51.281Z,4.00
2019-03-03T13:06:40.178Z,2.33
2019-03-03T13:09:27.698Z,2.77
2019-03-03T13:12:15.255Z,2.50
2019-03-03T13:15:02.787Z,2.30
2019-03-03T13:17:50.364Z,2.77
2019-03-03T13:26:02.533Z,1.77
2019-03-03T13:28:50.056Z,2.07
2019-03-03T13:34:12.911Z,0.77
2019-03-03T13:39:49.536Z,0.70
2019-03-03T13:42:37.076Z,0.70
2019-03-03T13:45:45.510Z,1.63
2019-03-03T13:48:13.949Z,1.20
2019-03-03T13:50:42.305Z,1.60
2019-03-03T13:53:10.745Z,3.47
2019-03-03T13:55:39.173Z,1.70
2019-03-03T13:58:07.571Z,1.53
2019-03-03T14:03:31.067Z,1.93
2019-03-03T14:06:18.655Z,1.43
2019-03-03T14:11:40.173Z,1.83
2019-03-03T14:14:48.519Z,1.73
2019-03-03T14:17:24.650Z,1.43
2019-03-03T14:19:53.079Z,1.67
2019-03-03T14:22:21.477Z,1.93
2019-03-03T14:24:49.883Z,1.30
2019-03-03T14:29:52.298Z,2.40
2019-03-03T14:34:54.537Z,2.73
2019-03-03T14:37:23.026Z,2.43
2019-03-03T14:39:51.423Z,2.30
2019-03-03T14:42:19.821Z,1.90
2019-03-03T14:47:43.310Z,2.60
2019-03-03T14:50:51.624Z,2.30
2019-03-03T14:53:20.131Z,2.20
2019-03-03T14:55:48.552Z,2.67
2019-03-03T14:58:17.017Z,3.73
2019-03-03T15:03:19.841Z,3.13
2019-03-03T15:05:48.272Z,3.20
2019-03-03T15:08:16.680Z,2.07
2019-03-03T15:10:45.146Z,1.77
2019-03-03T15:15:47.560Z,1.90
2019-03-03T15:21:08.969Z,1.90
2019-03-03T15:26:11.388Z,2.93
2019-03-03T15:28:39.876Z,2.20
2019-03-03T15:31:08.297Z,2.13
2019-03-03T15:33:38.621Z,1.90
2019-03-03T15:47:04.396Z,2.87
2019-03-03T15:52:06.525Z,2.60
2019-03-03T15:57:27.980Z,1.80
2019-03-03T16:00:15.702Z,1.97
2019-03-03T16:02:44.106Z,2.13
2019-03-03T16:08:26.884Z,2.30
2019-03-03T16:10:55.285Z,2.73
2019-03-03T16:13:23.687Z,3.53
2019-03-03T16:16:11.474Z,3.03
2019-03-03T16:18:59.204Z,3.23
2019-03-03T16:24:01.327Z,2.50
2019-03-03T16:26:49.027Z,2.23
2019-03-03T16:29:17.424Z,2.70
2019-03-03T16:32:05.398Z,2.57
2019-03-03T16:34:33.793Z,2.73
2019-03-03T16:37:02.262Z,2.93
2019-03-03T16:42:23.859Z,2.40
2019-03-03T16:44:52.314Z,2.57
2019-03-03T16:47:20.714Z,3.20
2019-03-03T16:49:49.126Z,4.90
2019-03-03T16:52:17.540Z,3.40
2019-03-03T16:54:45.933Z,3.43
2019-03-03T16:57:33.556Z,4.30
2019-03-03T17:00:01.959Z,3.17
2019-03-03T17:02:30.348Z,3.33
2019-03-03T17:05:18.128Z,6.20
2019-03-03T17:08:05.718Z,4.23
2019-03-03T17:13:08.221Z,5.47
2019-03-03T17:15:36.650Z,4.63
2019-03-03T17:18:05.125Z,5.40
2019-03-03T17:20:33.521Z,4.33
2019-03-03T17:23:01.977Z,8.73
2019-03-03T17:25:30.369Z,5.00
2019-03-03T17:27:58.772Z,4.67
2019-03-03T17:31:07.130Z,5.37
2019-03-03T17:33:35.524Z,5.70
2019-03-03T17:36:23.155Z,3.77
2019-03-03T17:38:51.545Z,3.53
2019-03-03T17:41:19.946Z,4.50
2019-03-03T17:46:22.791Z,3.27
2019-03-03T17:51:25.152Z,18.93
2019-03-03T17:56:27.857Z,3.23
2019-03-03T17:58:56.281Z,14.37
2019-03-03T18:06:45.687Z,8.27
2019-03-03T18:09:54.038Z,9.43
2019-03-03T18:12:22.468Z,7.67
2019-03-03T18:14:50.887Z,6.80
2019-03-03T18:19:52.868Z,4.37
2019-03-03T18:22:21.267Z,4.33
2019-03-03T18:27:28.753Z,7.60
2019-03-03T18:29:57.149Z,5.03
2019-03-03T18:32:25.542Z,5.07
2019-03-03T18:34:53.984Z,4.40
2019-03-03T18:37:22.377Z,5.83
2019-03-03T18:40:10.120Z,5.93
2019-03-03T18:42:57.840Z,5.87
2019-03-03T18:45:45.548Z,4.23
2019-03-03T18:48:33.265Z,4.00
2019-03-03T18:51:01.695Z,4.57
2019-03-03T18:53:49.439Z,6.73
2019-03-03T18:58:52.384Z,4.17
2019-03-03T19:01:20.821Z,3.50
2019-03-03T19:03:49.221Z,4.83
2019-03-03T19:09:19.060Z,6.13
2019-03-03T19:11:47.487Z,7.67
2019-03-03T19:14:15.887Z,11.60
2019-03-03T19:16:44.308Z,8.30
2019-03-03T19:19:12.702Z,6.27
2019-03-03T19:21:41.093Z,4.30
2019-03-03T19:26:43.365Z,3.90
2019-03-03T19:31:46.166Z,4.23
2019-03-03T19:40:01.888Z,4.17
2019-03-03T19:42:30.901Z,3.50
2019-03-03T19:45:19.773Z,5.87
2019-03-03T19:47:48.290Z,3.13
2019-03-03T19:50:36.125Z,9.67
2019-03-03T19:53:44.501Z,3.10
2019-03-03T19:58:46.856Z,2.50
2019-03-03T20:01:15.365Z,3.30
2019-03-03T20:03:43.831Z,7.07
2019-03-03T20:06:52.358Z,4.63
2019-03-03T20:09:20.748Z,2.57
2019-03-03T20:12:01.175Z,2.87
2019-03-03T20:17:22.951Z,3.40
2019-03-03T20:19:51.339Z,3.20
2019-03-03T20:22:19.738Z,3.57
2019-03-03T20:25:07.531Z,5.07
2019-03-03T20:28:15.855Z,3.50
2019-03-03T20:35:54.219Z,2.60
2019-03-03T20:38:22.706Z,3.47
2019-03-03T20:40:51.106Z,3.00
2019-03-03T20:43:19.501Z,2.60
2019-03-03T20:48:21.848Z,3.30
2019-03-03T20:51:30.196Z,3.03
2019-03-03T20:53:58.590Z,4.63
2019-03-03T20:56:26.988Z,3.03
2019-03-03T20:58:55.417Z,4.30
2019-03-03T21:01:23.814Z,5.50
2019-03-03T21:03:52.208Z,3.90
2019-03-03T21:08:54.407Z,3.20
2019-03-03T21:11:25.187Z,3.03
2019-03-03T21:13:53.584Z,3.60
2019-03-03T21:16:21.982Z,4.17
2019-03-03T21:21:24.730Z,5.27
2019-03-03T21:26:27.272Z,4.27
2019-03-03T21:31:29.686Z,3.43
2019-03-03T21:33:58.136Z,3.63
2019-03-03T21:36:26.527Z,3.00
2019-03-03T21:38:54.928Z,3.47
2019-03-03T21:41:23.343Z,5.03
2019-03-03T21:43:51.735Z,5.23
2019-03-03T21:46:20.135Z,4.03
2019-03-03T21:54:17.890Z,3.23
2019-03-03T22:02:07.547Z,3.70
2019-03-03T22:07:09.906Z,3.03
2019-03-03T22:09:38.294Z,3.40
2019-03-03T22:14:40.270Z,3.30
2019-03-03T22:17:21.083Z,3.13
2019-03-03T22:19:49.466Z,3.00
2019-03-03T22:22:17.858Z,4.03
2019-03-03T22:27:20.039Z,3.37
2019-03-03T22:29:48.439Z,5.07
2019-03-03T22:32:16.899Z,5.97
2019-03-03T22:34:45.296Z,4.23
2019-03-03T22:37:13.683Z,3.90
2019-03-03T22:39:42.099Z,3.97
2019-03-03T22:42:10.483Z,3.90
2019-03-03T22:44:38.876Z,3.83
2019-03-03T22:47:07.310Z,3.60
2019-03-03T22:49:35.701Z,4.20
2019-03-03T22:54:57.540Z,3.90
2019-03-03T22:57:25.959Z,3.70
2019-03-03T22:59:54.346Z,4.17
2019-03-03T23:03:02.783Z,3.50
2019-03-03T23:06:11.155Z,3.90
2019-03-03T23:09:19.560Z,4.07
2019-03-03T23:12:26.548Z,3.10
2019-03-03T23:15:33.652Z,3.30
2019-03-03T23:18:40.654Z,5.17
2019-03-03T23:21:47.721Z,4.47
2019-03-03T23:24:54.705Z,3.40
2019-03-03T23:27:42.376Z,5.03
2019-03-03T23:30:30.090Z,4.40
2019-03-03T23:32:58.506Z,3.50
2019-03-03T23:35:26.903Z,3.80
2019-03-03T23:37:55.295Z,6.57
2019-03-03T23:42:57.634Z,3.00
2019-03-03T23:45:26.047Z,3.67
2019-03-03T23:47:54.443Z,4.83
2019-03-03T23:50:22.840Z,6.03
2019-03-03T23:52:51.261Z,5.00
2019-03-03T23:55:19.651Z,3.77
2019-03-03T23:57:48.047Z,3.80
